Bath, New Hampshire
Current Conditions -  °F | °C
As of 6:12 AM on Friday 28 Nov 2014 (Local Time) from KHIE Reporting Station
Light Snow Light Snow  
Wind Chill: 22°   Ceiling: 2500
Heat Index: 22°   Visibility: 2mi
Dew Point: 20°   Wind: 0mph
Humidity: 92%   Direction: NA
Pressure: 29.99"   Gusts: NA
Location:  44.17°N, 71.97°W
Report Text: KHIE 281112Z AUTO 00000KT 2SM -SN BR FEW012 OVC025 M06/M07 A2999 RMK AO2 P0001 T10561067
Loading
Personal Weather Stations






























Interactive Weather Map New forecast layout! Learn more

10-Day Weather Forecast

Advertisements
Track Severe Weather on mobile